Richmond, CA (94801)

5:06 PM PDT on September 20, 2014 (GMT -0700)
Marina Bay | Change Station
CLOSE
Current Station
Personal Weather Station
Location: Richmond, CA
Elevation: 10 ft
Nearby Weather Stations

Elev 10 ft 37.91 °N, 122.35 °W | Updated 53 seconds ago

Partly Cloudy
Partly Cloudy
67.8 °F
Feels Like 67.8 °F
N
8.0
Wind Variable Wind from WSW
Gusts 9.0 mph

Today
High -- | Low -- °F
--% Chance of Precip.
Yesterday
High -- | Low -- °F
Precip. -- in
6:55 AM 7:09 PM
Waning Crescent, 10% visible
Pressure 29.90 in
Visibility 10.0 miles
Clouds Few 1100 ft
Mostly Cloudy 18000 ft
Dew Point 62 °F
Humidity 81%
Rainfall 0.00 in
Snow Depth 0 in , 0 in , 0 in
UV 0.8 out of 12
Pollen 4.00 out of 12
PM2.5 Good
Flu Activity Not available.
METAR KOAK 202353Z 28015KT 10SM FEW011 BKN180 21/15 A2990 RMK AO2 SLP125 T02110150 10217 20189 56008 $

More Conditions Fewer Conditions

Pressure 29.90 in
Visibility 10.0 miles
Clouds Few 1100 ft
Mostly Cloudy 18000 ft
Dew Point 62 °F
Humidity 81%
Rainfall 0.00 in
Snow Depth 0 in , 0 in , 0 in
UV 0.8 out of 12
Pollen 4.00 out of 12
PM2.5 Good
Flu Activity Not available.
METAR KOAK 202353Z 28015KT 10SM FEW011 BKN180 21/15 A2990 RMK AO2 SLP125 T02110150 10217 20189 56008 $

More Conditions Fewer Conditions

10-Day Weather Forecast

Almanac

Astronomy

Sep. 20, 2014 Rise Set
Actual Time 6:55 AM PDT 7:09 PM PDT
Civil Twilight 6:29 AM PDT 7:35 PM PDT
Nautical Twilight 5:58 AM PDT 8:06 PM PDT
Astronomical Twilight 5:27 AM PDT 8:37 PM PDT
Moon 3:42 AM PDT (9/20) 5:13 PM PDT (9/20)
Length of Visible Light 13h 06m
Length of Day
12h 13m
Tomorrow will be 2m 26s shorter.
Waning Crescent, 10% of the Moon is Illuminated
Today
Waning Crescent
Sep 24
New
Oct 1
First Quarter
Oct 8
Full
Oct 15
Last Quarter

Today's Extremes

State Highs State Lows

Community

WunderPhotos

Upload Photos

1,754,982 photos uploaded!

WunderBlogs® & News

Nearby

Air Quality

  Air Quality AQ Index Pollutant
Yesterday Good
PM2.5
Yesterday Good
OZONE
Current Good
PM2.5
Saturday Moderate
PM2.5
Sunday Moderate
PM2.5
Monday Moderate
PM2.5
Tuesday Moderate
PM2.5
Wednesday Good
OZONE
Thursday Good
OZONE

Snow Depth

Station Depth Elevation
Adin Mountain 0 in 6200 ft
CSS Lab 0 in 6900 ft
Summit Meadow 0 in 9122 ft
Leavitt Meadows 0 in 7200 ft

Earthquake Activity

City Distance Mag. Time & Date
Livermore, California 39 miles 2.6 3:37 AM PDT
2014-09-19
The Geysers, California 59 miles 2.5 11:29 PM PDT
2014-09-17
Minimum magnitude displayed is 2.5.

Coastal Water Temperatures

Place Temperature
San Francisco, CA 66.0 °F
Richmond, CA 66.9 °F
Port Chicago, CA 70.0 °F

Nearby Weather Stations